Grand Rivers, KY (42045)

3:09 AM CST on January 30, 2015 (GMT -0600)
Calvert City | Change Station
CLOSE
Current Station
Personal Weather Station
Location: Calvert City, KY
Elevation: 364 ft
Nearby Weather Stations

Elev 364 ft 37.02 °N, 88.33 °W | Updated 2 seconds ago

Overcast
Overcast
36.5 °F
Feels Like 32 °F
N
5.4
Wind Variable Wind from North
Gusts 14.5 mph

Today
High -- | Low -- °F
--% Chance of Precip.
Yesterday
High -- | Low -- °F
Precip. -- in
6:57 AM 5:15 PM
Waxing Gibbous, 81% visible
Pressure 30.41 in
Visibility 10.0 miles
Clouds Overcast 2400 ft
Windchill 32 °F
Dew Point 24 °F
Humidity 59%
Rainfall 0.00 in
Snow Depth Not available.
UV 0 out of 12
Pollen 1.30 out of 12
Air Quality Not available.
Flu Activity Not available.
METAR K5M9 300855Z AUTO 33011G20KT 10SM OVC024 01/M04 A3041 RMK AO2 T00061040

More Conditions Fewer Conditions

Pressure 30.41 in
Visibility 10.0 miles
Clouds Overcast 2400 ft
Windchill 32 °F
Dew Point 24 °F
Humidity 59%
Rainfall 0.00 in
Snow Depth Not available.
UV 0 out of 12
Pollen 1.30 out of 12
Air Quality Not available.
Flu Activity Not available.
METAR K5M9 300855Z AUTO 33011G20KT 10SM OVC024 01/M04 A3041 RMK AO2 T00061040

More Conditions Fewer Conditions

10-Day Weather Forecast

Almanac

Astronomy

Jan. 30, 2015 Rise Set
Actual Time
Civil Twilight
Nautical Twilight
Astronomical Twilight
Moon
Length of Visible Light
Length of Day
Tomorrow will be .
, % of the Moon is Illuminated

Today's Extremes

State Highs State Lows

Community

WunderPhotos

Upload Photos

1,791,736 photos uploaded!

WunderBlogs® & News

Nearby

Air Quality

  Air Quality AQ Index Pollutant
Not available.

Snow Depth

Station Depth Elevation

Earthquake Activity

City Distance Mag. Time & Date
Minimum magnitude displayed is 2.5.

Coastal Water Temperatures

Place Temperature

Nearby Weather Stations